Página principal
METAR-TAF:

METAR-TAF

Aeroportos :

La Palma, Espanha

latitude: 28-37N, longitude: 017-45W, altura: 29 m

Observação actual do tempo

O boletim foi feito há 40 minutos, às 02:00 UTC
Vento 5 kt de norte
Temperatura 20°C
Humidade 73%
Pressão 1027 hPa
Visibilidade 10 km ou mais
Encobertoa uma altura de 4300 ft

METAR: GCLA 140200Z AUTO 01005KT 9999 OVC043 20/15 Q1027

Hora: 02:40 (02:40 UTC)

Previsão

O boletim foi feito há 40 minutos, às 02:00 UTC
Previsão válida de 14 às 03 UTC a 15 às 03 UTC
Vento 7 kt de nor-noroeste
Visibilidade 10 km ou mais
Nuvens dispersasa uma altura de 2500 ft
Tornando-se
de 14 às 09 UTC a 14 às 11 UTC
Vento 10 kt de nor-nordeste

TAF: GCLA 140200Z 1403/1503 33007KT 9999 SCT025 TX23/1413Z TN18/1406Z BECMG 1409/1411 03010KT

Observações e previsões do tempo de mais de 4000 aeroportos (mensagens METAR e TAF).

As estações disponíveis são os pontos amarelos e vermelhos sobre o mapa.

Mova o rato sobre o mapa para ver o nome da estação.

Depois clique no ponto para visualizar as observações e previsões meteorológicas.

Para alterar o mapa : clique nos botões verdes com uma cruz preta para aumentar o zoom; no botão verde com uma pitada de zoom; ou nas setas verdes para mapas adjacentes.


METAR-TAF: